West Jefferson, Ohio
Current Conditions -  °F | °C
As of 6:50 PM on Friday 31 Oct 2014 (Local Time) from KTZR Reporting Station
Light Rain Light Rain  
Wind Chill: 32°   Ceiling: 1200
Heat Index: 39°   Visibility: 10mi
Dew Point: 37°   Wind: 12mph
Humidity: 93%   Direction: 320°NW
Pressure: 29.9"   Gusts: 18mph
Location:  39.94°N, 83.27°W
Report Text: KTZR 312250Z 32010G16KT 10SM -RA BKN012 BKN017 OVC070 04/03 A2990
Loading
Personal Weather Stations






























Interactive Weather Map
Tropical Storm Tracking
New forecast layout! Learn more

10-Day Weather Forecast

Advertisements
Track Severe Weather on mobile